Time;durP1;ratioP1;P1;durP2;ratioP2;P2;SDS_P1;SDS_P2;PMS_P1;PMS_P2;Temp;Humidity;BMP_temperature;BMP_pressure;BME280_temperature;BME280_humidity;BME280_pressure;Samples;Min_cycle;Max_cycle;Signal;HPM_P1;HPM_P2
2022/07/14 00:00:32;;;;;;;8.10;2.90;;;21.50;99.90;;;;;;4962508;28;20220;-82
2022/07/14 00:03:01;;;;;;;6.60;3.33;;;21.60;99.90;;;;;;4979590;28;20204;-82
2022/07/14 00:05:29;;;;;;;6.40;3.10;;;21.50;99.90;;;;;;4975954;28;20220;-82
2022/07/14 00:07:57;;;;;;;5.32;3.17;;;21.50;99.90;;;;;;4978569;28;20663;-82
2022/07/14 00:10:25;;;;;;;5.80;3.08;;;21.50;99.90;;;;;;4979644;28;20220;-82
2022/07/14 00:12:53;;;;;;;8.75;3.38;;;21.40;99.90;;;;;;4979399;28;20205;-82
2022/07/14 00:15:21;;;;;;;7.18;3.22;;;21.40;99.90;;;;;;4965552;28;20213;-82
2022/07/14 00:17:49;;;;;;;8.38;3.30;;;21.40;99.90;;;;;;4960704;28;20243;-82
2022/07/14 00:20:19;;;;;;;6.35;3.35;;;21.40;99.90;;;;;;4978894;28;20671;-82
2022/07/14 00:22:46;;;;;;;9.38;3.35;;;21.30;99.90;;;;;;4967065;28;20216;-82
2022/07/14 00:25:14;;;;;;;8.93;3.15;;;21.10;99.90;;;;;;4961074;28;20204;-82
2022/07/14 00:27:43;;;;;;;6.60;3.28;;;21.00;99.90;;;;;;4977887;28;20224;-82
2022/07/14 00:30:11;;;;;;;9.05;3.58;;;20.90;99.90;;;;;;4960575;28;20221;-82
2022/07/14 00:32:40;;;;;;;6.72;3.08;;;21.00;99.90;;;;;;4962201;28;20200;-81
2022/07/14 00:35:09;;;;;;;9.70;2.97;;;21.00;99.90;;;;;;4977506;28;20208;-81
2022/07/14 00:37:40;;;;;;;9.27;3.17;;;21.00;99.90;;;;;;4962173;28;20247;-82
2022/07/14 00:40:08;;;;;;;5.47;3.08;;;20.80;99.90;;;;;;4985955;28;20205;-82
2022/07/14 00:42:39;;;;;;;9.20;3.20;;;20.90;99.90;;;;;;4965920;28;20185;-81
2022/07/14 00:45:09;;;;;;;10.57;3.22;;;20.90;99.90;;;;;;4975823;28;20197;-81
2022/07/14 00:47:37;;;;;;;11.80;3.22;;;20.80;99.90;;;;;;4980431;28;20225;-82
2022/07/14 00:50:06;;;;;;;8.95;3.20;;;20.80;99.90;;;;;;4994260;28;20219;-81
2022/07/14 00:52:35;;;;;;;8.02;3.20;;;20.50;99.90;;;;;;4973048;28;20201;-81
2022/07/14 00:55:05;;;;;;;6.75;2.80;;;20.40;99.90;;;;;;4961024;28;20193;-82
2022/07/14 00:57:32;;;;;;;5.75;3.00;;;20.60;99.90;;;;;;4963588;28;20225;-82
2022/07/14 01:00:00;;;;;;;12.55;3.80;;;20.70;99.90;;;;;;4968587;28;20196;-82
2022/07/14 01:02:28;;;;;;;7.20;3.60;;;20.60;99.90;;;;;;4960521;28;20197;-81
2022/07/14 01:04:55;;;;;;;6.65;3.10;;;20.40;99.90;;;;;;4960570;28;20217;-81
2022/07/14 01:07:23;;;;;;;8.40;3.28;;;20.60;99.90;;;;;;4958975;28;20225;-81
2022/07/14 01:09:50;;;;;;;5.97;2.70;;;20.50;99.90;;;;;;4965513;28;20216;-82
2022/07/14 01:12:20;;;;;;;9.27;3.60;;;20.50;99.90;;;;;;4977173;28;20659;-82
2022/07/14 01:14:47;;;;;;;10.75;4.25;;;20.50;99.90;;;;;;4966911;28;20690;-81
2022/07/14 01:17:15;;;;;;;10.63;3.10;;;20.20;99.90;;;;;;4975319;28;20233;-81
2022/07/14 01:19:42;;;;;;;8.43;3.25;;;20.10;99.90;;;;;;4965941;28;20221;-82
2022/07/14 01:22:12;;;;;;;11.48;3.00;;;20.00;99.90;;;;;;4975066;28;20212;-82
2022/07/14 01:24:39;;;;;;;10.23;3.47;;;19.70;99.90;;;;;;4968574;28;20340;-82
2022/07/14 01:27:07;;;;;;;8.90;2.72;;;19.70;99.90;;;;;;4975404;28;20225;-82
2022/07/14 01:29:35;;;;;;;10.95;3.53;;;19.50;99.90;;;;;;4964959;28;20201;-81
2022/07/14 01:32:04;;;;;;;6.93;3.17;;;19.70;99.90;;;;;;4971661;28;20213;-82
2022/07/14 01:34:32;;;;;;;6.78;3.10;;;19.60;99.90;;;;;;4960234;28;20201;-82
2022/07/14 01:37:00;;;;;;;11.40;3.75;;;19.60;99.90;;;;;;4955938;28;20225;-81
2022/07/14 01:39:28;;;;;;;12.15;3.45;;;19.30;99.90;;;;;;4959439;28;20225;-81
2022/07/14 01:41:56;;;;;;;8.90;3.05;;;19.30;99.90;;;;;;4959683;28;20209;-82
2022/07/14 01:44:23;;;;;;;11.27;3.30;;;19.40;99.90;;;;;;4962755;28;20216;-81
2022/07/14 01:46:51;;;;;;;5.68;3.28;;;19.30;99.90;;;;;;4960528;28;20715;-81
2022/07/14 01:49:21;;;;;;;7.15;2.97;;;19.30;99.90;;;;;;4951639;28;20209;-82
2022/07/14 01:51:48;;;;;;;8.10;2.60;;;19.20;99.90;;;;;;4978416;28;20212;-81
2022/07/14 01:54:18;;;;;;;9.43;3.30;;;19.30;99.90;;;;;;4973464;28;20204;-82
2022/07/14 01:56:47;;;;;;;12.57;3.47;;;19.40;99.90;;;;;;4958342;28;20221;-82
2022/07/14 01:59:16;;;;;;;6.95;3.00;;;19.70;99.90;;;;;;4966591;28;20232;-82
2022/07/14 02:01:44;;;;;;;9.43;3.05;;;19.80;99.90;;;;;;4957269;28;20200;-82
2022/07/14 02:04:14;;;;;;;9.85;3.35;;;19.90;99.90;;;;;;4959451;28;20684;-82
2022/07/14 02:06:44;;;;;;;5.40;2.60;;;19.90;99.90;;;;;;4966629;28;20230;-81
2022/07/14 02:09:17;;;;;;;8.48;3.38;;;20.00;99.90;;;;;;4985209;28;20196;-82
2022/07/14 02:14:33;;;;;;;9.02;3.30;;;20.10;99.90;;;;;;4973915;28;20212;-82
2022/07/14 02:17:01;;;;;;;7.35;2.97;;;20.00;99.90;;;;;;4957167;28;20224;-82
2022/07/14 02:19:30;;;;;;;11.77;3.40;;;20.00;99.90;;;;;;4961919;28;20216;-82
2022/07/14 02:21:57;;;;;;;12.10;3.33;;;19.90;99.90;;;;;;4958397;28;20201;-82
2022/07/14 02:24:25;;;;;;;7.50;3.40;;;19.90;99.90;;;;;;4960704;28;20201;-81
2022/07/14 02:26:54;;;;;;;9.95;3.75;;;19.80;99.90;;;;;;4973092;28;20229;-82
2022/07/14 02:29:22;;;;;;;9.65;2.80;;;19.70;99.90;;;;;;4975959;28;20188;-82
2022/07/14 02:31:50;;;;;;;8.95;3.08;;;19.70;99.90;;;;;;4973284;28;20206;-82
2022/07/14 02:34:18;;;;;;;8.32;3.30;;;19.60;99.90;;;;;;4959338;28;20201;-82
2022/07/14 02:36:47;;;;;;;7.97;3.03;;;19.80;99.90;;;;;;4960121;28;20587;-82
2022/07/14 02:39:15;;;;;;;16.83;3.55;;;19.90;99.90;;;;;;4956593;28;20225;-82
2022/07/14 02:41:42;;;;;;;7.25;3.00;;;19.90;99.90;;;;;;4966834;28;20204;-81
2022/07/14 02:44:12;;;;;;;8.30;2.90;;;19.90;99.90;;;;;;4957436;28;20209;-81
2022/07/14 02:46:42;;;;;;;9.95;3.53;;;19.80;99.90;;;;;;4978083;28;20706;-82
2022/07/14 02:49:09;;;;;;;7.05;3.03;;;19.80;99.90;;;;;;4975748;28;20197;-82
2022/07/14 02:51:40;;;;;;;10.77;3.88;;;19.70;99.90;;;;;;4982935;28;20208;-81
2022/07/14 02:54:07;;;;;;;10.13;3.60;;;19.60;99.90;;;;;;4982783;28;20539;-81
2022/07/14 02:56:35;;;;;;;11.38;2.80;;;19.40;99.90;;;;;;4957471;28;20232;-81
2022/07/14 02:59:06;;;;;;;10.00;3.30;;;19.60;99.90;;;;;;4971809;28;20213;-81
2022/07/14 03:01:36;;;;;;;10.38;3.38;;;19.60;99.90;;;;;;4972133;28;20204;-81
2022/07/14 03:04:07;;;;;;;10.48;4.70;;;19.60;99.90;;;;;;4959286;28;20204;-81
2022/07/14 03:06:35;;;;;;;10.88;2.90;;;19.50;99.90;;;;;;4957330;28;20225;-81
2022/07/14 03:09:05;;;;;;;7.95;2.80;;;19.40;99.90;;;;;;4967676;28;20201;-81
2022/07/14 03:11:33;;;;;;;7.68;3.40;;;19.40;99.90;;;;;;4958147;28;20219;-81
2022/07/14 03:14:00;;;;;;;11.07;3.88;;;19.10;99.90;;;;;;4959480;28;20201;-81
2022/07/14 03:16:29;;;;;;;16.25;4.15;;;18.90;99.90;;;;;;4964056;28;20228;-81
2022/07/14 03:19:04;;;;;;;12.98;3.72;;;19.00;99.90;;;;;;4951128;28;20239;-81
2022/07/14 03:21:32;;;;;;;10.32;4.15;;;19.10;99.90;;;;;;4974865;28;20201;-81
2022/07/14 03:24:02;;;;;;;12.93;3.17;;;19.00;99.90;;;;;;4955217;28;20204;-81
2022/07/14 03:26:32;;;;;;;10.55;2.88;;;18.90;99.90;;;;;;4961254;28;20690;-81
2022/07/14 03:29:00;;;;;;;9.65;3.20;;;19.10;99.90;;;;;;4970090;28;20554;-81
2022/07/14 03:31:27;;;;;;;11.85;3.72;;;19.10;99.90;;;;;;4961275;28;20197;-81
2022/07/14 03:33:56;;;;;;;8.20;3.45;;;19.20;99.90;;;;;;4964434;28;20201;-81
2022/07/14 03:36:26;;;;;;;11.55;4.00;;;19.30;99.90;;;;;;4971454;28;20224;-81
2022/07/14 03:38:54;;;;;;;9.38;3.75;;;19.10;99.90;;;;;;4961466;28;20228;-81
2022/07/14 03:41:21;;;;;;;10.75;3.85;;;19.20;99.90;;;;;;4975646;28;20201;-81
2022/07/14 03:43:49;;;;;;;12.40;3.70;;;19.30;99.90;;;;;;4961166;28;20201;-82
2022/07/14 03:46:19;;;;;;;13.68;3.50;;;19.20;99.90;;;;;;4967391;28;20224;-81
2022/07/14 03:48:57;;;;;;;9.13;2.85;;;19.20;99.90;;;;;;4960097;28;20205;-81
2022/07/14 03:51:26;;;;;;;11.63;3.35;;;19.20;99.90;;;;;;4981650;28;20201;-82
2022/07/14 03:53:55;;;;;;;11.88;3.90;;;19.20;99.90;;;;;;4976751;28;20201;-81
2022/07/14 03:56:23;;;;;;;9.55;3.80;;;19.30;99.90;;;;;;4964359;28;20233;-81
2022/07/14 03:58:50;;;;;;;9.30;3.05;;;19.10;99.90;;;;;;4960436;28;20231;-82
2022/07/14 04:01:21;;;;;;;5.85;2.83;;;18.90;99.90;;;;;;4964844;28;20224;-84
2022/07/14 04:03:52;;;;;;;9.48;3.38;;;18.90;99.90;;;;;;4962531;28;20201;-84
2022/07/14 04:06:20;;;;;;;10.15;3.95;;;18.90;99.90;;;;;;4964749;28;20596;-84
2022/07/14 04:08:49;;;;;;;8.82;3.20;;;18.90;99.90;;;;;;4979045;28;20205;-84
2022/07/14 04:11:17;;;;;;;13.10;3.15;;;18.80;99.90;;;;;;4963744;28;20197;-84
2022/07/14 04:13:46;;;;;;;9.65;3.05;;;19.00;99.90;;;;;;4971789;28;20212;-84
2022/07/14 04:16:14;;;;;;;8.07;3.38;;;18.90;99.90;;;;;;4982772;28;20225;-84
2022/07/14 04:18:47;;;;;;;14.07;3.80;;;18.90;99.90;;;;;;4965462;28;20208;-84
2022/07/14 04:21:15;;;;;;;8.02;3.08;;;19.00;99.90;;;;;;4977703;28;20228;-84
2022/07/14 04:23:43;;;;;;;8.13;2.83;;;19.00;99.90;;;;;;4962273;28;20204;-85
2022/07/14 04:26:13;;;;;;;11.35;3.85;;;19.00;99.90;;;;;;4968161;28;20228;-84
2022/07/14 04:28:42;;;;;;;13.32;3.30;;;18.90;99.90;;;;;;4960973;28;20201;-84
2022/07/14 04:31:11;;;;;;;11.95;3.97;;;18.90;99.90;;;;;;4978697;28;20201;-84
2022/07/14 04:33:40;;;;;;;8.88;3.60;;;18.80;99.90;;;;;;4961893;28;20245;-84
2022/07/14 04:36:10;;;;;;;11.55;3.70;;;18.80;99.90;;;;;;4965356;28;20224;-84
2022/07/14 04:38:38;;;;;;;11.75;4.28;;;18.80;99.90;;;;;;4980708;28;20204;-84
2022/07/14 04:41:05;;;;;;;11.35;3.53;;;18.80;99.90;;;;;;4963789;28;20232;-84
2022/07/14 04:43:38;;;;;;;9.80;3.47;;;18.80;99.90;;;;;;4969263;28;20221;-84
2022/07/14 04:46:09;;;;;;;10.75;3.50;;;18.70;99.90;;;;;;4961437;28;20228;-84
2022/07/14 04:54:27;;;;;;;11.15;4.10;;;18.70;99.90;;;;;;4938079;29;20206;-83
2022/07/14 04:57:29;;;;;;;10.20;3.50;;;18.60;99.90;;;;;;4878450;29;20228;-84
2022/07/14 04:59:59;;;;;;;11.52;3.38;;;18.40;99.90;;;;;;4912525;29;20214;-83
2022/07/14 05:02:26;;;;;;;8.75;3.00;;;18.60;99.90;;;;;;4937013;28;20205;-84
2022/07/14 05:04:54;;;;;;;10.02;3.95;;;18.60;99.90;;;;;;4977923;28;20197;-84
2022/07/14 05:07:21;;;;;;;6.20;3.15;;;18.70;99.90;;;;;;4973983;28;20226;-84
2022/07/14 05:09:55;;;;;;;9.68;2.88;;;18.60;99.90;;;;;;4961430;28;20200;-84
2022/07/14 05:12:23;;;;;;;12.63;3.58;;;18.70;99.90;;;;;;4961850;28;20642;-84
2022/07/14 05:14:50;;;;;;;13.02;3.63;;;18.60;99.90;;;;;;4984005;28;20557;-84
2022/07/14 05:17:20;;;;;;;10.02;3.70;;;18.80;99.90;;;;;;4951529;28;20225;-84
2022/07/14 05:19:54;;;;;;;13.65;3.47;;;18.70;99.90;;;;;;4971942;28;20197;-84
2022/07/14 05:22:22;;;;;;;12.10;3.38;;;18.30;99.90;;;;;;4975861;28;20205;-84
2022/07/14 05:24:50;;;;;;;10.30;3.67;;;18.30;99.90;;;;;;4959912;28;20213;-84
2022/07/14 05:27:17;;;;;;;10.88;4.13;;;18.50;99.90;;;;;;4956396;28;20225;-84
2022/07/14 05:29:45;;;;;;;10.38;3.33;;;18.70;99.90;;;;;;4973629;28;20201;-84
2022/07/14 05:32:14;;;;;;;7.50;3.45;;;18.80;99.90;;;;;;4966256;28;20552;-84
2022/07/14 05:34:45;;;;;;;12.70;3.85;;;18.80;99.90;;;;;;4963875;28;20197;-84
2022/07/14 05:37:15;;;;;;;12.02;3.40;;;18.80;99.90;;;;;;4965748;28;20236;-84
2022/07/14 05:39:43;;;;;;;13.73;3.72;;;18.60;99.90;;;;;;4959278;28;20201;-84
2022/07/14 05:42:12;;;;;;;10.15;3.60;;;18.90;99.90;;;;;;4987832;28;20216;-84
2022/07/14 05:44:39;;;;;;;11.85;4.13;;;18.90;99.90;;;;;;4979740;28;20208;-84
2022/07/14 05:47:08;;;;;;;8.43;3.55;;;18.90;99.90;;;;;;4996752;28;20221;-84
2022/07/14 05:49:35;;;;;;;15.50;3.92;;;18.80;99.90;;;;;;4974778;28;20204;-84
2022/07/14 05:52:05;;;;;;;10.55;4.25;;;18.90;99.90;;;;;;4954179;28;20204;-85
2022/07/14 05:54:33;;;;;;;11.10;3.78;;;18.90;99.90;;;;;;4991655;28;20587;-84
2022/07/14 05:57:01;;;;;;;8.43;3.90;;;18.90;99.90;;;;;;4941383;28;1120667;-84
2022/07/14 05:59:28;;;;;;;9.80;4.05;;;19.00;99.90;;;;;;4980719;28;20205;-84
2022/07/14 06:01:56;;;;;;;9.25;3.55;;;19.00;99.90;;;;;;4954204;28;20217;-84
2022/07/14 06:04:24;;;;;;;12.65;4.13;;;19.10;99.90;;;;;;4964362;28;20209;-84
2022/07/14 06:06:51;;;;;;;11.63;3.55;;;19.10;99.90;;;;;;4966266;28;20221;-83
2022/07/14 06:09:21;;;;;;;8.35;3.35;;;19.00;99.90;;;;;;4963739;28;20208;-84
2022/07/14 06:11:49;;;;;;;12.85;4.28;;;19.10;99.90;;;;;;4963906;28;20200;-84
2022/07/14 06:14:17;;;;;;;9.88;3.75;;;19.10;99.90;;;;;;4978808;28;20197;-84
2022/07/14 06:16:45;;;;;;;12.73;3.80;;;19.00;99.90;;;;;;4970531;28;20228;-84
2022/07/14 06:19:13;;;;;;;12.13;3.47;;;19.00;99.90;;;;;;4965213;28;20201;-84
2022/07/14 06:21:41;;;;;;;11.68;3.97;;;19.10;99.90;;;;;;4963782;28;20231;-84
2022/07/14 06:24:09;;;;;;;9.95;4.00;;;19.30;99.90;;;;;;4963296;28;20204;-84
2022/07/14 06:26:38;;;;;;;15.05;4.40;;;19.20;99.90;;;;;;4963654;28;20240;-84
2022/07/14 06:29:06;;;;;;;11.93;4.47;;;19.10;99.90;;;;;;4979131;28;20189;-84
2022/07/14 06:31:36;;;;;;;10.13;3.92;;;19.30;99.90;;;;;;4963514;28;20201;-84
2022/07/14 06:34:06;;;;;;;12.25;3.72;;;19.00;99.90;;;;;;4979977;28;20197;-84
2022/07/14 06:36:56;;;;;;;10.98;4.05;;;19.20;99.90;;;;;;4976604;28;20217;-84
2022/07/14 06:39:24;;;;;;;9.77;3.08;;;19.30;99.90;;;;;;4964146;28;20205;-84
2022/07/14 06:41:54;;;;;;;11.63;3.95;;;19.20;99.90;;;;;;4979102;28;20228;-84
2022/07/14 06:44:27;;;;;;;15.00;4.47;;;19.60;99.90;;;;;;4962641;28;20204;-84
2022/07/14 06:46:55;;;;;;;10.18;3.83;;;19.60;99.90;;;;;;4945843;29;20224;-84
2022/07/14 06:49:23;;;;;;;12.82;3.88;;;19.50;99.90;;;;;;4943716;29;20672;-84
2022/07/14 06:51:50;;;;;;;11.85;4.22;;;19.70;99.90;;;;;;4946807;28;20672;-84
2022/07/14 06:54:18;;;;;;;9.32;3.83;;;19.80;99.90;;;;;;4951121;29;20213;-84
2022/07/14 06:56:45;;;;;;;10.88;4.40;;;19.90;99.90;;;;;;4967735;28;20232;-84
2022/07/14 06:59:14;;;;;;;13.82;4.72;;;20.00;99.90;;;;;;4984123;28;20196;-84
2022/07/14 07:01:42;;;;;;;12.57;4.68;;;19.90;99.90;;;;;;4983750;28;20213;-84
2022/07/14 07:04:09;;;;;;;11.05;4.57;;;20.00;99.90;;;;;;4982952;28;20228;-84
2022/07/14 07:06:44;;;;;;;10.35;4.28;;;20.10;99.90;;;;;;4975897;28;20231;-84
2022/07/14 07:09:12;;;;;;;13.00;4.93;;;19.90;99.90;;;;;;4981443;28;20562;-84
2022/07/14 07:11:40;;;;;;;11.02;4.32;;;20.00;99.90;;;;;;4969406;28;20197;-84
2022/07/14 07:14:08;;;;;;;12.05;4.72;;;20.10;99.90;;;;;;4981319;28;20200;-84
2022/07/14 07:16:37;;;;;;;14.15;4.18;;;20.20;99.90;;;;;;4970733;28;20224;-84
2022/07/14 07:19:05;;;;;;;9.57;4.75;;;20.20;99.90;;;;;;4983228;28;20208;-84
2022/07/14 07:21:33;;;;;;;9.25;3.97;;;20.10;99.90;;;;;;4999716;28;20229;-84
2022/07/14 07:24:00;;;;;;;9.85;4.20;;;20.30;99.90;;;;;;4999687;28;20214;-84
2022/07/14 07:26:32;;;;;;;15.25;4.38;;;20.20;99.90;;;;;;4982976;28;20232;-84
2022/07/14 07:29:00;;;;;;;14.07;5.07;;;20.20;99.90;;;;;;4972260;28;20209;-84
2022/07/14 07:31:27;;;;;;;10.30;4.63;;;20.10;99.90;;;;;;4964821;28;20212;-84
2022/07/14 07:33:56;;;;;;;11.45;4.88;;;20.20;99.90;;;;;;4983051;28;20197;-84
2022/07/14 07:36:24;;;;;;;10.57;5.15;;;20.30;99.90;;;;;;4984017;28;20242;-84
2022/07/14 07:38:51;;;;;;;12.93;5.03;;;20.30;99.90;;;;;;4984538;28;20216;-84
2022/07/14 07:41:19;;;;;;;12.27;6.45;;;20.50;99.90;;;;;;4984284;28;20208;-84
2022/07/14 07:43:47;;;;;;;11.75;5.57;;;20.50;99.90;;;;;;4983252;28;20205;-84
2022/07/14 07:46:14;;;;;;;13.45;6.97;;;20.40;99.90;;;;;;4984486;28;20232;-84
2022/07/14 07:48:42;;;;;;;14.52;6.65;;;20.40;99.90;;;;;;4990642;28;20201;-84
2022/07/14 07:51:11;;;;;;;10.27;5.55;;;20.30;99.90;;;;;;4961618;28;20208;-84
2022/07/14 07:53:39;;;;;;;13.52;5.65;;;20.20;99.90;;;;;;4976875;28;20201;-84
2022/07/14 07:56:07;;;;;;;10.05;5.00;;;20.30;99.90;;;;;;4988455;28;20224;-84
2022/07/14 07:58:34;;;;;;;12.90;5.65;;;20.40;99.90;;;;;;4979646;28;20205;-84
2022/07/14 08:01:02;;;;;;;9.30;4.78;;;20.40;99.90;;;;;;4996443;28;20193;-83
2022/07/14 08:03:30;;;;;;;11.80;4.25;;;20.50;99.90;;;;;;4985014;28;20205;-85
2022/07/14 08:05:57;;;;;;;9.18;3.85;;;20.40;99.90;;;;;;4965626;28;20236;-84
2022/07/14 08:08:26;;;;;;;9.38;4.60;;;20.60;99.90;;;;;;4984136;28;20189;-84
2022/07/14 08:10:54;;;;;;;9.77;4.57;;;20.60;99.90;;;;;;4982969;28;20683;-84
2022/07/14 08:13:21;;;;;;;9.25;4.50;;;20.60;99.90;;;;;;4969438;28;20663;-84
2022/07/14 08:15:49;;;;;;;11.32;4.10;;;20.60;99.90;;;;;;4984537;28;20232;-84
2022/07/14 08:18:16;;;;;;;8.43;3.53;;;20.60;99.90;;;;;;4982527;28;20201;-87
2022/07/14 08:20:58;;;;;;;8.52;4.05;;;20.60;99.90;;;;;;4982088;28;20208;-84
2022/07/14 08:23:27;;;;;;;7.68;3.50;;;20.60;99.90;;;;;;4968184;28;20235;-84
2022/07/14 08:25:55;;;;;;;10.07;3.80;;;20.90;99.90;;;;;;4983289;28;20221;-84
2022/07/14 08:28:22;;;;;;;9.70;3.65;;;20.80;99.90;;;;;;4964091;28;20208;-84
2022/07/14 08:30:50;;;;;;;7.00;3.38;;;20.50;99.90;;;;;;4974355;28;20484;-84
2022/07/14 08:33:17;;;;;;;7.10;3.35;;;20.70;99.90;;;;;;4966856;28;20204;-84
2022/07/14 08:35:47;;;;;;;7.45;3.17;;;20.70;99.90;;;;;;4966747;28;20200;-84
2022/07/14 08:38:15;;;;;;;9.15;3.72;;;20.70;99.30;;;;;;4966526;28;20205;-84
2022/07/14 08:40:43;;;;;;;11.57;3.65;;;20.70;99.40;;;;;;4982708;28;20212;-84
2022/07/14 08:43:13;;;;;;;7.13;3.08;;;20.70;99.40;;;;;;4957820;28;20225;-84
2022/07/14 08:45:42;;;;;;;10.20;2.95;;;20.80;99.60;;;;;;4984150;28;20212;-84
2022/07/14 08:48:10;;;;;;;8.60;3.00;;;21.00;97.80;;;;;;4982627;28;20205;-84
2022/07/14 08:50:38;;;;;;;4.90;2.08;;;21.20;96.60;;;;;;4998660;28;20205;-84
2022/07/14 08:53:08;;;;;;;5.80;2.03;;;21.10;94.40;;;;;;4982167;28;20201;-84
2022/07/14 08:55:36;;;;;;;5.40;1.77;;;21.20;93.30;;;;;;4998235;28;20212;-84
2022/07/14 08:58:04;;;;;;;4.53;1.40;;;21.30;90.80;;;;;;4982755;28;20193;-84
2022/07/14 09:00:32;;;;;;;6.07;2.58;;;21.50;90.60;;;;;;4966084;28;20216;-84
2022/07/14 09:03:00;;;;;;;6.30;2.30;;;21.60;91.30;;;;;;4965778;28;20209;-85
2022/07/14 09:05:27;;;;;;;5.43;2.38;;;21.50;89.80;;;;;;4966407;28;20212;-84
2022/07/14 09:07:57;;;;;;;5.90;1.73;;;21.40;88.90;;;;;;4982030;28;20213;-84
2022/07/14 09:10:26;;;;;;;4.68;1.92;;;21.40;85.20;;;;;;4981624;28;20224;-83
2022/07/14 09:13:11;;;;;;;3.03;1.55;;;21.30;88.10;;;;;;4963800;28;20204;-84
2022/07/14 09:15:45;;;;;;;4.75;1.50;;;21.30;86.40;;;;;;4962254;28;20217;-84
2022/07/14 09:18:20;;;;;;;4.53;1.52;;;21.30;86.30;;;;;;4946923;28;20264;-84
2022/07/14 09:20:48;;;;;;;3.25;1.73;;;21.40;89.50;;;;;;4953268;28;20207;-84
2022/07/14 09:23:15;;;;;;;4.75;1.95;;;21.40;90.00;;;;;;4973571;28;20229;-84
2022/07/14 09:25:43;;;;;;;5.13;1.63;;;21.40;88.50;;;;;;4982026;28;20204;-84
2022/07/14 09:28:12;;;;;;;4.80;1.83;;;21.30;88.20;;;;;;4965424;28;20208;-85
2022/07/14 09:30:39;;;;;;;5.18;1.40;;;21.40;89.60;;;;;;4965757;28;20208;-85
2022/07/14 09:33:06;;;;;;;3.85;1.55;;;21.60;87.30;;;;;;4968198;28;20204;-84
2022/07/14 09:35:42;;;;;;;4.15;1.63;;;21.40;88.60;;;;;;4963868;28;20209;-84
2022/07/14 09:38:17;;;;;;;4.03;1.27;;;21.50;89.60;;;;;;4973238;28;20204;-84
2022/07/14 09:40:45;;;;;;;3.20;1.20;;;21.70;87.80;;;;;;4965625;28;20651;-84
2022/07/14 09:43:15;;;;;;;6.28;1.55;;;21.80;86.00;;;;;;4979641;28;20568;-81
2022/07/14 09:45:45;;;;;;;4.63;1.70;;;21.90;84.20;;;;;;4974888;28;20588;-83
2022/07/14 09:48:14;;;;;;;2.53;1.10;;;22.20;84.40;;;;;;4977250;28;20197;-83
2022/07/14 09:50:56;;;;;;;3.28;1.75;;;22.00;84.30;;;;;;4957693;29;20212;-82
2022/07/14 09:53:26;;;;;;;4.55;1.20;;;22.00;82.90;;;;;;4958196;28;20200;-83
2022/07/14 09:55:57;;;;;;;4.72;1.90;;;22.10;80.10;;;;;;4959773;28;20232;-83
2022/07/14 09:58:28;;;;;;;4.47;1.30;;;22.10;82.10;;;;;;4981202;28;20223;-83
2022/07/14 10:01:01;;;;;;;4.00;1.65;;;22.30;81.10;;;;;;4960126;28;20205;-83
2022/07/14 10:03:30;;;;;;;5.80;1.40;;;22.30;81.80;;;;;;4959386;28;20236;-82
2022/07/14 10:05:59;;;;;;;5.45;1.48;;;22.20;82.00;;;;;;4960474;28;20725;-84
2022/07/14 10:08:30;;;;;;;4.13;1.55;;;22.30;79.90;;;;;;4977924;28;20209;-83
2022/07/14 10:11:00;;;;;;;2.63;1.30;;;22.60;80.20;;;;;;4976024;28;20212;-83
2022/07/14 10:13:29;;;;;;;3.55;1.55;;;22.50;74.00;;;;;;4961302;28;20205;-83
2022/07/14 10:15:57;;;;;;;4.07;1.73;;;22.30;73.80;;;;;;4973935;28;20220;-83
2022/07/14 10:18:26;;;;;;;9.27;2.28;;;22.30;73.20;;;;;;4976701;28;20573;-82
2022/07/14 10:20:55;;;;;;;4.25;1.33;;;22.20;74.30;;;;;;4976814;28;20216;-82
2022/07/14 10:23:23;;;;;;;4.95;1.10;;;22.20;75.90;;;;;;4976507;28;20231;-82
2022/07/14 10:25:53;;;;;;;6.05;1.52;;;22.20;76.90;;;;;;4960222;28;20225;-83
2022/07/14 10:28:22;;;;;;;4.03;1.52;;;22.40;76.50;;;;;;4960313;28;20205;-83
2022/07/14 10:31:01;;;;;;;3.40;1.20;;;22.50;76.30;;;;;;4960048;28;20209;-83
2022/07/14 10:33:36;;;;;;;4.20;1.33;;;22.60;75.60;;;;;;4977521;28;20203;-83
2022/07/14 10:36:14;;;;;;;4.20;1.60;;;22.70;75.10;;;;;;4959272;28;20231;-82
2022/07/14 10:38:52;;;;;;;3.70;1.20;;;22.50;71.00;;;;;;4971612;28;20208;-83
2022/07/14 10:41:47;;;;;;;3.20;1.42;;;22.60;72.10;;;;;;4974877;28;20196;-83
2022/07/14 10:44:18;;;;;;;3.95;2.00;;;22.70;71.40;;;;;;4953657;28;20220;-83
2022/07/14 10:46:50;;;;;;;2.83;1.08;;;22.90;70.00;;;;;;4975548;28;20233;-83
2022/07/14 10:49:18;;;;;;;2.72;1.15;;;23.10;70.40;;;;;;4973565;28;20204;-83
2022/07/14 10:51:48;;;;;;;2.20;1.17;;;23.10;67.20;;;;;;4960905;28;20205;-83
2022/07/14 10:54:16;;;;;;;2.65;1.23;;;23.30;67.20;;;;;;4960342;28;20208;-83
2022/07/14 10:56:46;;;;;;;3.08;1.02;;;23.30;65.70;;;;;;4967635;28;20247;-83
2022/07/14 10:59:33;;;;;;;3.72;1.52;;;23.20;66.20;;;;;;4968382;28;20208;-83
2022/07/14 11:02:35;;;;;;;5.00;1.80;;;23.10;65.80;;;;;;4955600;28;20206;-82
2022/07/14 11:05:10;;;;;;;5.00;1.85;;;23.20;67.40;;;;;;4983446;28;20561;-82
2022/07/14 11:07:40;;;;;;;2.75;1.33;;;23.20;67.50;;;;;;4975321;28;20232;-82
2022/07/14 11:10:41;;;;;;;4.25;1.45;;;23.20;67.80;;;;;;4966570;28;20566;-84
2022/07/14 11:13:10;;;;;;;5.57;1.42;;;23.50;66.80;;;;;;4962464;28;20204;-82
2022/07/14 11:15:39;;;;;;;3.80;1.35;;;23.70;66.40;;;;;;4958979;28;20204;-82
2022/07/14 11:18:34;;;;;;;5.07;1.20;;;23.50;67.70;;;;;;4960402;28;20201;-82
2022/07/14 11:21:06;;;;;;;5.35;1.48;;;23.10;66.30;;;;;;4963969;28;20205;-81
2022/07/14 11:23:35;;;;;;;2.33;0.90;;;23.30;66.20;;;;;;4956176;28;20209;-82
2022/07/14 11:26:06;;;;;;;5.85;1.48;;;23.30;63.00;;;;;;4951339;28;20217;-81
2022/07/14 11:28:38;;;;;;;2.60;1.30;;;23.30;61.00;;;;;;4956831;28;20201;-82
2022/07/14 11:31:10;;;;;;;1.88;1.00;;;23.00;61.70;;;;;;4959196;28;20197;-81
2022/07/14 11:36:17;;;;;;;3.58;1.50;;;23.00;60.10;;;;;;4957865;28;20194;-81
2022/07/14 11:36:29;;;;;;;2.58;1.30;;;23.20;59.80;;;;;;4974723;28;20229;-81
2022/07/14 11:39:22;;;;;;;4.55;1.10;;;23.50;58.50;;;;;;4974183;28;20200;-82
2022/07/14 11:41:53;;;;;;;3.20;1.95;;;23.70;57.30;;;;;;4974232;28;20209;-81
2022/07/14 11:44:54;;;;;;;3.45;1.60;;;23.90;58.70;;;;;;4962705;28;20224;-81
2022/07/14 11:47:24;;;;;;;3.88;1.45;;;23.80;55.90;;;;;;4961075;28;20220;-82
2022/07/14 11:49:55;;;;;;;4.38;1.52;;;23.70;54.20;;;;;;4977362;28;20208;-82
2022/07/14 11:52:29;;;;;;;3.40;1.40;;;23.80;55.80;;;;;;4982381;28;20216;-82
2022/07/14 11:55:01;;;;;;;3.25;1.40;;;23.60;54.90;;;;;;4977571;28;20203;-81
2022/07/14 11:57:29;;;;;;;3.60;1.58;;;23.80;55.80;;;;;;4957537;28;20224;-81
2022/07/14 12:00:04;;;;;;;3.67;1.67;;;24.10;53.60;;;;;;4977450;28;20205;-82
2022/07/14 12:02:32;;;;;;;2.40;1.30;;;24.30;53.60;;;;;;4978559;28;20192;-82
2022/07/14 12:05:02;;;;;;;4.78;1.48;;;24.20;54.30;;;;;;4994435;28;20224;-82
2022/07/14 12:07:45;;;;;;;4.43;1.50;;;24.20;54.80;;;;;;4978256;28;20217;-82
2022/07/14 12:10:13;;;;;;;2.70;1.45;;;24.60;54.50;;;;;;4978406;28;20208;-82
2022/07/14 12:12:42;;;;;;;3.00;1.38;;;24.90;53.00;;;;;;4979496;28;20197;-82
2022/07/14 12:15:11;;;;;;;4.88;1.45;;;25.00;51.50;;;;;;4962888;28;20565;-82
2022/07/14 12:17:47;;;;;;;3.92;1.40;;;24.80;51.30;;;;;;4960809;28;20710;-80
2022/07/14 12:20:17;;;;;;;4.25;1.55;;;24.70;51.90;;;;;;4959590;28;20201;-80
2022/07/14 12:22:45;;;;;;;2.45;1.35;;;24.70;51.80;;;;;;4975245;28;20205;-80
2022/07/14 12:25:26;;;;;;;2.50;1.30;;;24.90;51.80;;;;;;4975871;28;20221;-80
2022/07/14 12:27:53;;;;;;;3.75;1.40;;;25.10;51.60;;;;;;4958144;28;20228;-80
2022/07/14 12:30:22;;;;;;;3.40;1.40;;;24.70;50.70;;;;;;4969863;28;20212;-80
2022/07/14 12:32:53;;;;;;;3.90;1.38;;;24.80;51.30;;;;;;4975401;28;20201;-80
2022/07/14 12:35:23;;;;;;;2.90;1.50;;;24.60;51.40;;;;;;4991504;28;20197;-80
2022/07/14 12:37:52;;;;;;;2.92;1.17;;;24.50;52.20;;;;;;4991473;28;20228;-80
2022/07/14 12:40:20;;;;;;;3.80;1.48;;;24.40;52.20;;;;;;4975455;28;20197;-80
2022/07/14 12:42:48;;;;;;;3.78;1.67;;;24.30;52.50;;;;;;4961788;28;20201;-80
2022/07/14 12:45:15;;;;;;;3.03;1.33;;;24.60;53.10;;;;;;4959283;28;20224;-80
2022/07/14 12:47:49;;;;;;;3.22;1.25;;;24.30;52.30;;;;;;4959897;28;20714;-80
2022/07/14 12:50:22;;;;;;;3.88;1.38;;;24.70;53.50;;;;;;4975622;28;20201;-80
2022/07/14 12:52:52;;;;;;;4.00;1.45;;;24.70;52.20;;;;;;4975086;28;20197;-80
2022/07/14 12:55:34;;;;;;;3.38;1.38;;;24.90;52.30;;;;;;4958332;28;20197;-82
2022/07/14 12:58:06;;;;;;;3.97;1.40;;;24.90;52.50;;;;;;4975168;28;20204;-80
2022/07/14 13:00:34;;;;;;;2.58;1.40;;;25.20;52.90;;;;;;4962849;28;20197;-80
2022/07/14 13:03:13;;;;;;;1.38;1.20;;;25.30;52.30;;;;;;4990452;28;20216;-80
2022/07/14 13:05:52;;;;;;;4.35;2.00;;;24.80;52.20;;;;;;4991012;28;20228;-80